Latest Weather Observations for Mount Keith

IDW60801

Issued at 8:02 pm WST Tuesday 28 April 2015 (issued every 30 minutes, with the page automatically refreshed every 10 minutes)

About weather observations | Map of weather stations | Latest weather observations for WA | Other Formats
Station Details ID: 512019 Name: MOUNT KEITH Lat: -27.29 Lon: 120.55 Height: 542.33 m
Data from the previous 72 hours. | See also: Recent months for locations in Western Australia
Date/Time
WST
Temp
°C
App
Temp
°C
Dew
Point
Rel
Hum
%
Delta-T
°C
Wind Press
QNH
hPa
Press
MSL
hPa
Rain
since 9 am
mm
Dir
 
Spd
km/h
Gust
km/h
Spd
kts
Gust
kts
28/08:00pm 16.4 13.5 4.8 46 5.6 SE 9 13 5 7 1024.3 1021.7 0.0
28/07:30pm 16.7 13.8 4.7 45 5.8 SE 9 11 5 6 1023.8 1021.2 0.0
28/07:00pm 17.8 14.9 4.4 41 6.5 SE 9 15 5 8 1023.6 1021.0 0.0
28/06:30pm 18.5 15.5 3.9 38 7.1 SE 9 9 5 5 1023.3 1020.7 0.0
28/06:00pm 19.3 15.8 3.5 35 7.6 ESE 11 11 6 6 1022.4 1019.8 0.0
28/05:30pm 21.0 17.4 3.2 31 8.7 E 11 15 6 8 1022.1 1019.5 0.0
28/05:00pm 22.2 18.2 2.8 28 9.4 E 13 19 7 10 1021.7 1019.1 0.0
28/04:30pm 22.9 19.8 3.4 28 9.7 E 9 15 5 8 1021.6 1019.0 0.0
28/04:00pm 23.1 19.1 3.1 27 9.9 ENE 13 22 7 12 1021.6 1019.0 0.0
28/03:30pm 23.1 19.2 3.6 28 9.7 NE 13 20 7 11 1021.5 1018.8 0.0
28/03:00pm 23.0 19.0 3.0 27 9.8 ENE 13 22 7 12 1021.5 1018.8 0.0
28/02:30pm 22.9 18.2 3.4 28 9.7 ENE 17 26 9 14 1021.5 1018.8 0.0
28/02:00pm 23.0 18.0 3.5 28 9.7 NE 19 26 10 14 1021.6 1019.0 0.0
28/01:30pm 22.9 18.3 3.9 29 9.5 NE 17 24 9 13 1022.0 1019.4 0.0
28/01:00pm 22.3 17.6 3.4 29 9.3 E 17 24 9 13 1022.6 1020.0 0.0
28/12:30pm 21.8 16.7 3.9 31 8.9 NNE 20 28 11 15 1023.2 1020.6 0.0
28/12:00pm 21.1 16.0 3.3 31 8.7 NE 19 30 10 16 1023.8 1021.2 0.0
28/11:30am 21.0 15.1 4.1 33 8.4 NE 24 32 13 17 1024.3 1021.7 0.0
28/11:00am 20.0 14.1 4.1 35 7.8 NE 24 32 13 17 1024.7 1022.1 0.0
28/10:30am 19.2 13.7 4.2 37 7.4 ENE 22 30 12 16 1025.0 1022.4 0.0
28/10:00am 18.1 12.3 4.3 40 6.7 ENE 24 32 13 17 1025.5 1022.9 0.0
28/09:30am 16.8 11.4 4.5 44 6.0 ENE 22 28 12 15 1025.9 1023.3 0.0
28/09:00am 16.6 11.7 4.9 46 5.7 ENE 20 28 11 15 1025.9 1023.3 0.0
28/08:30am 15.5 10.7 4.5 48 5.3 E 19 26 10 14 1025.8 1023.2 0.0
28/08:00am 13.8 8.8 4.7 54 4.3 E 20 28 11 15 1025.8 1023.2 0.0
28/07:30am 12.2 8.2 4.9 61 3.4 E 15 22 8 12 1026.1 1023.5 0.0
28/07:00am 10.4 7.2 5.0 69 2.5 ESE 11 15 6 8 1026.2 1023.6 0.0
28/06:30am 8.5 5.2 4.3 75 1.9 SE 11 11 6 6 1025.6 1023.0 0.0
28/06:00am 8.6 5.2 4.2 74 2.0 SE 11 13 6 7 1025.3 1022.7 0.0
28/05:30am 8.9 5.9 4.1 72 2.2 E 9 9 5 5 1025.4 1022.8 0.0
28/05:00am 9.5 6.5 4.1 69 2.4 E 9 11 5 6 1025.1 1022.5 0.0
28/04:30am 9.9 6.5 4.1 67 2.6 E 11 13 6 7 1025.1 1022.5 0.0
28/04:00am 10.2 7.1 3.7 64 2.9 E 9 11 5 6 1025.0 1022.4 0.0
28/03:30am 10.9 7.9 3.9 62 3.2 E 9 13 5 7 1025.0 1022.4 0.0
28/03:00am 11.2 8.1 3.7 60 3.4 E 9 13 5 7 1025.0 1022.4 0.0
28/02:30am 11.2 7.8 4.0 61 3.3 E 11 15 6 8 1025.1 1022.5 0.0
28/02:00am 11.4 8.4 3.9 60 3.4 ENE 9 11 5 6 1025.2 1022.6 0.0
28/01:30am 12.0 8.6 4.2 59 3.6 E 11 15 6 8 1025.3 1022.7 0.0
28/01:00am 11.9 8.5 4.2 59 3.6 E 11 13 6 7 1025.4 1022.8 0.0
28/12:30am 12.5 9.6 4.5 58 3.8 E 9 13 5 7 1025.5 1022.9 0.0
28/12:00am 12.2 8.9 4.7 60 3.5 ESE 11 15 6 8 1025.4 1022.8 0.0
 
Date/Time
WST
Temp
°C
App
Temp
°C
Dew
Point
Rel
Hum
%
Delta-T
°C
Wind Press
QNH
hPa
Press
MSL
hPa
Rain
since 9 am
mm
Dir
 
Spd
km/h
Gust
km/h
Spd
kts
Gust
kts
27/11:30pm 11.8 8.8 4.3 60 3.5 E 9 13 5 7 1025.6 1023.0 0.0
27/11:00pm 12.5 9.2 4.5 58 3.7 ESE 11 13 6 7 1025.8 1023.2 0.0
27/10:30pm 13.2 10.3 4.4 55 4.2 ESE 9 11 5 6 1026.0 1023.4 0.0
27/10:00pm 14.2 10.5 4.5 52 4.6 ESE 13 17 7 9 1025.8 1023.2 0.0
27/09:30pm 15.3 11.3 4.7 49 5.1 ESE 15 17 8 9 1025.9 1023.3 0.0
27/09:00pm 15.4 11.8 4.8 49 5.1 SE 13 15 7 8 1025.8 1023.2 0.0
27/08:30pm 15.8 12.2 4.8 48 5.3 SE 13 17 7 9 1025.8 1023.2 0.0
27/08:00pm 16.0 12.3 4.4 46 5.6 SE 13 17 7 9 1025.5 1022.9 0.0
27/07:30pm 16.5 13.2 4.5 45 5.8 SE 11 15 6 8 1025.6 1023.0 0.0
27/07:00pm 16.9 13.6 4.6 44 6.0 SE 11 13 6 7 1025.4 1022.8 0.0
27/06:30pm 18.1 14.4 4.3 40 6.7 SE 13 17 7 9 1025.2 1022.6 0.0
27/06:00pm 18.8 15.1 4.2 38 7.1 SSE 13 17 7 9 1024.9 1022.3 0.0
27/05:30pm 19.8 15.2 3.9 35 7.8 SE 17 22 9 12 1024.5 1021.9 0.0
27/05:00pm 20.8 16.2 3.5 32 8.4 SE 17 24 9 13 1024.2 1021.6 0.0
27/04:30pm 21.5 16.5 3.7 31 8.8 SE 19 26 10 14 1024.0 1021.4 0.0
27/04:00pm 21.7 17.1 3.9 31 8.8 SE 17 24 9 13 1023.9 1021.3 0.0
27/03:30pm 21.6 17.0 3.8 31 8.8 ESE 17 26 9 14 1023.9 1021.3 0.0
27/03:00pm 21.9 17.3 3.6 30 9.0 E 17 30 9 16 1023.8 1021.2 0.0
27/02:30pm 22.1 18.4 4.2 31 9.0 ESE 13 24 7 13 1023.9 1021.3 0.0
27/02:00pm 21.7 17.6 4.3 32 8.7 SE 15 26 8 14 1024.0 1021.4 0.0
27/01:30pm 21.0 16.4 3.7 32 8.5 ESE 17 22 9 12 1024.1 1021.5 0.0
27/01:00pm 20.7 16.5 3.9 33 8.3 SE 15 24 8 13 1024.4 1021.8 0.0
27/12:30pm 21.0 16.6 5.0 35 8.1 ENE 17 26 9 14 1024.9 1022.3 0.0
27/12:00pm 20.3 15.5 4.4 35 7.9 ENE 19 26 10 14 1025.5 1022.9 0.0
27/11:30am 19.9 14.9 4.8 37 7.5 ENE 20 30 11 16 1025.8 1023.2 0.0
27/11:00am 19.1 14.3 4.8 39 7.1 ENE 19 30 10 16 1026.1 1023.5 0.0
27/10:30am 18.2 12.8 4.7 41 6.7 ENE 22 30 12 16 1026.5 1024.0 0.0
27/10:00am 17.2 11.9 4.9 44 6.0 ENE 22 32 12 17 1026.9 1024.3 0.0
27/09:30am 16.4 11.6 4.8 46 5.7 E 19 26 10 14 1027.0 1024.4 0.0
27/09:00am 15.8 10.1 5.1 49 5.2 ENE 24 33 13 18 1027.0 1024.4 0.0
27/08:30am 14.7 9.0 4.7 51 4.8 E 24 37 13 20 1026.9 1024.3 0.0
27/08:00am 13.8 8.8 4.7 54 4.3 E 20 30 11 16 1026.5 1024.0 0.0
27/07:30am 12.6 7.8 4.8 59 3.7 E 19 26 10 14 1026.2 1023.6 0.0
27/07:00am 11.3 6.9 4.7 64 3.1 E 17 24 9 13 1025.9 1023.3 0.0
27/06:30am 10.6 6.6 4.7 67 2.7 E 15 24 8 13 1025.8 1023.2 0.0
27/06:00am 10.7 6.3 4.8 67 2.7 E 17 22 9 12 1025.7 1023.1 0.0
27/05:30am 11.1 7.1 5.0 66 2.9 E 15 24 8 13 1025.5 1022.9 0.0
27/05:00am 11.2 7.2 5.1 66 2.9 E 15 20 8 11 1025.2 1022.6 0.0
27/04:30am 11.4 7.4 5.1 65 3.0 E 15 22 8 12 1025.2 1022.6 0.0
27/04:00am 11.6 8.1 5.3 65 3.0 E 13 17 7 9 1025.2 1022.6 0.0
27/03:30am 11.8 8.2 5.2 64 3.1 ESE 13 19 7 10 1025.1 1022.5 0.0
27/03:00am 12.2 8.2 5.1 62 3.4 E 15 20 8 11 1025.1 1022.5 0.0
27/02:30am 12.6 8.3 5.3 61 3.5 E 17 24 9 13 1024.9 1022.3 0.0
27/02:00am 12.9 8.0 5.1 59 3.7 E 20 28 11 15 1024.6 1022.0 0.0
27/01:30am 13.2 8.3 4.9 57 4.0 E 20 32 11 17 1024.7 1022.1 0.0
27/01:00am 13.8 9.0 4.9 55 4.2 E 19 28 10 15 1025.0 1022.4 0.0
27/12:30am 13.7 9.2 4.0 52 4.6 E 17 24 9 13 1025.0 1022.4 0.0
27/12:00am 14.3 10.2 4.3 51 4.7 E 15 20 8 11 1024.9 1022.3 0.0
 
Date/Time
WST
Temp
°C
App
Temp
°C
Dew
Point
Rel
Hum
%
Delta-T
°C
Wind Press
QNH
hPa
Press
MSL
hPa
Rain
since 9 am
mm
Dir
 
Spd
km/h
Gust
km/h
Spd
kts
Gust
kts
26/11:30pm 14.3 10.1 4.0 50 4.9 E 15 20 8 11 1024.9 1022.3 0.0
26/11:00pm 14.6 10.4 4.0 49 5.0 E 15 20 8 11 1024.7 1022.1 0.0
26/10:30pm 13.5 9.7 3.8 52 4.5 E 13 17 7 9 1025.0 1022.4 0.0
26/10:00pm 13.5 10.0 3.6 51 4.6 ESE 11 13 6 7 1025.2 1022.6 0.0
26/09:30pm 14.3 10.5 3.7 49 5.0 ESE 13 15 7 8 1025.1 1022.5 0.0
26/09:00pm 14.8 11.3 3.6 47 5.2 ESE 11 15 6 8 1025.0 1022.4 0.0
26/08:30pm 15.4 11.5 3.5 45 5.6 ESE 13 15 7 8 1025.0 1022.4 0.0
26/08:00pm 16.2 11.9 3.3 42 6.1 ESE 15 17 8 9 1024.6 1022.0 0.0
26/07:30pm 16.6 12.7 3.3 41 6.3 ESE 13 17 7 9 1024.4 1021.8 0.0
26/07:00pm 17.1 13.1 3.1 39 6.6 ESE 13 17 7 9 1024.2 1021.6 0.0
26/06:30pm 17.8 13.8 2.9 37 7.1 ESE 13 17 7 9 1023.9 1021.3 0.0
26/06:00pm 18.5 14.8 2.4 34 7.6 ESE 11 13 6 7 1023.8 1021.2 0.0
26/05:30pm 19.7 15.7 2.6 32 8.2 E 13 20 7 11 1023.5 1020.9 0.0
26/05:00pm 20.9 16.4 2.2 29 8.9 E 15 22 8 12 1023.2 1020.6 0.0
26/04:30pm 21.2 16.3 2.0 28 9.2 E 17 20 9 11 1023.0 1020.3 0.0
26/04:00pm 21.8 17.4 2.5 28 9.3 E 15 24 8 13 1023.0 1020.3 0.0
26/03:30pm 21.8 16.9 2.0 27 9.5 E 17 26 9 14 1022.8 1020.2 0.0
26/03:00pm 21.6 16.7 2.3 28 9.3 E 17 24 9 13 1022.7 1020.1 0.0
26/02:30pm 21.3 16.3 1.6 27 9.3 E 17 24 9 13 1023.1 1020.4 0.0
26/02:00pm 21.4 16.6 2.6 29 9.1 ENE 17 30 9 16 1023.1 1020.4 0.0
26/01:30pm 20.9 16.0 2.2 29 8.9 E 17 30 9 16 1023.2 1020.6 0.0
26/01:00pm 21.1 16.4 3.3 31 8.7 E 17 32 9 17 1023.3 1020.7 0.0
26/12:30pm 20.1 14.9 3.8 34 8.0 ENE 20 30 11 16 1023.7 1021.1 0.0
26/12:00pm 19.3 13.9 4.3 37 7.4 NE 22 32 12 17 1024.3 1021.7 0.0
26/11:30am 19.4 14.5 4.0 36 7.5 ENE 19 28 10 15 1024.9 1022.3 0.0
26/11:00am 18.3 12.5 4.5 40 6.7 ENE 24 33 13 18 1025.3 1022.7 0.0
26/10:30am 18.0 12.3 4.9 42 6.5 ENE 24 33 13 18 1025.6 1023.0 0.0
26/10:00am 17.2 11.6 5.5 46 5.8 ENE 24 35 13 19 1025.9 1023.3 0.0
26/09:30am 16.2 9.8 5.2 48 5.4 ENE 28 37 15 20 1026.2 1023.6 0.0
26/09:00am 15.4 9.0 5.0 50 5.0 ENE 28 39 15 21 1026.3 1023.7 0.0
26/08:30am 14.7 9.4 5.0 52 4.7 ENE 22 32 12 17 1026.1 1023.5 0.0
26/08:00am 13.3 8.4 5.2 58 3.9 ENE 20 30 11 16 1025.9 1023.3 0.0
26/07:30am 11.4 6.5 5.1 65 3.0 E 20 28 11 15 1025.7 1023.1 0.0
26/07:00am 9.9 6.3 5.1 72 2.2 E 13 17 7 9 1025.6 1023.0 0.0
26/06:30am 8.2 4.9 4.8 79 1.6 E 11 15 6 8 1025.4 1022.8 0.0
26/06:00am 8.2 5.3 4.6 78 1.6 E 9 11 5 6 1025.3 1022.7 0.0
26/05:30am 8.9 6.0 4.7 75 1.9 E 9 13 5 7 1025.1 1022.5 0.0
26/05:00am 9.3 5.6 4.7 73 2.1 E 13 17 7 9 1025.0 1022.4 0.0
26/04:30am 9.2 5.5 4.4 72 2.2 E 13 17 7 9 1024.6 1022.0 0.0
26/04:00am 9.6 5.5 4.4 70 2.4 E 15 20 8 11 1024.3 1021.7 0.0
26/03:30am 9.9 6.2 4.3 68 2.6 ENE 13 19 7 10 1024.4 1021.8 0.0
26/03:00am 10.5 6.4 4.2 65 2.9 E 15 20 8 11 1024.5 1021.9 0.0
26/02:30am 10.9 6.4 4.4 64 3.0 E 17 20 9 11 1024.4 1021.8 0.0
26/02:00am 10.9 6.8 4.1 63 3.1 E 15 22 8 12 1024.3 1021.7 0.0
26/01:30am 10.9 6.7 3.9 62 3.2 E 15 22 8 12 1024.3 1021.7 0.0
26/01:00am 11.2 6.7 4.0 61 3.3 E 17 20 9 11 1024.4 1021.8 0.0
26/12:30am 10.9 7.1 3.9 62 3.2 E 13 15 7 8 1024.5 1021.9 0.0
26/12:00am 11.0 7.6 3.8 61 3.3 E 11 13 6 7 1024.4 1021.8 0.0
 
Date/Time
WST
Temp
°C
App
Temp
°C
Dew
Point
Rel
Hum
%
Delta-T
°C
Wind Press
QNH
hPa
Press
MSL
hPa
Rain
since 9 am
mm
Dir
 
Spd
km/h
Gust
km/h
Spd
kts
Gust
kts
25/11:30pm 11.6 8.1 3.6 58 3.7 E 11 13 6 7 1024.5 1021.9 0.0
25/11:00pm 12.2 8.7 3.7 56 3.9 E 11 15 6 8 1024.6 1022.0 0.0
25/10:30pm 12.8 8.6 3.7 54 4.2 E 15 22 8 12 1024.6 1022.0 0.0
25/10:00pm 13.0 8.8 3.7 53 4.3 E 15 20 8 11 1024.5 1021.9 0.0
25/09:30pm 12.3 8.5 3.8 56 3.9 E 13 15 7 8 1024.5 1021.9 0.0
25/09:00pm 12.6 9.1 3.5 54 4.2 ESE 11 15 6 8 1024.6 1022.0 0.0
25/08:30pm 13.6 10.1 3.4 50 4.7 ESE 11 13 6 7 1024.5 1021.9 0.0

Other Formats:

Comma delimited format used in spreadsheet applications
http://www.bom.gov.au/fwo/IDW60801/IDW60801.99434.axf

JavaScript Object Notation format (JSON) in row-major order
http://www.bom.gov.au/fwo/IDW60801/IDW60801.99434.json